createdAt,value
2018-06-19T00:00:26.658Z,1025.88
2018-06-19T00:01:26.469Z,1025.87
2018-06-19T00:02:26.820Z,1025.87
2018-06-19T00:03:26.559Z,1025.89
2018-06-19T00:04:26.570Z,1025.86
2018-06-19T00:05:26.585Z,1025.87
2018-06-19T00:06:26.586Z,1025.86
2018-06-19T00:07:26.469Z,1025.88
2018-06-19T00:08:26.463Z,1025.87
2018-06-19T00:09:26.559Z,1025.87
2018-06-19T00:10:26.697Z,1025.88
2018-06-19T00:11:26.529Z,1025.82
2018-06-19T00:12:26.531Z,1025.86
2018-06-19T00:13:26.611Z,1025.89
2018-06-19T00:14:26.643Z,1025.91
2018-06-19T00:15:26.478Z,1025.9
2018-06-19T00:16:26.547Z,1025.87
2018-06-19T00:17:26.688Z,1025.88
2018-06-19T00:18:26.643Z,1025.9
2018-06-19T00:19:26.470Z,1025.88
2018-06-19T00:20:26.494Z,1025.94
2018-06-19T00:21:26.396Z,1025.9
2018-06-19T00:22:26.671Z,1025.91
2018-06-19T00:23:26.603Z,1025.89
2018-06-19T00:24:26.454Z,1025.86
2018-06-19T00:25:26.691Z,1025.88
2018-06-19T00:26:26.659Z,1025.9
2018-06-19T00:27:26.968Z,1025.87
2018-06-19T00:28:26.671Z,1025.93
2018-06-19T00:29:26.513Z,1025.94
2018-06-19T00:30:26.409Z,1025.97
2018-06-19T00:31:26.511Z,1025.96
2018-06-19T00:32:26.430Z,1025.96
2018-06-19T00:33:26.390Z,1025.96
2018-06-19T00:34:26.607Z,1025.94
2018-06-19T00:35:26.556Z,1025.91
2018-06-19T00:36:26.492Z,1025.94
2018-06-19T00:37:26.390Z,1025.9
2018-06-19T00:38:26.576Z,1025.92
2018-06-19T00:39:26.532Z,1025.94
2018-06-19T00:40:26.677Z,1025.96
2018-06-19T00:41:26.514Z,1025.97
2018-06-19T00:42:26.437Z,1025.96
2018-06-19T00:43:26.632Z,1025.95
2018-06-19T00:44:26.607Z,1025.97
2018-06-19T00:45:26.603Z,1026
2018-06-19T00:46:26.448Z,1026
2018-06-19T00:47:26.498Z,1025.99
2018-06-19T00:48:26.545Z,1026.01
2018-06-19T00:49:26.568Z,1026.03
2018-06-19T00:50:26.433Z,1026.03
2018-06-19T00:51:26.354Z,1026.02
2018-06-19T00:52:26.525Z,1026.05
2018-06-19T00:53:26.564Z,1026.05
2018-06-19T00:54:26.430Z,1026.03
2018-06-19T00:55:26.619Z,1026.03
2018-06-19T00:56:26.793Z,1026.05
2018-06-19T00:57:26.584Z,1026.06
2018-06-19T00:58:26.437Z,1026.06
2018-06-19T00:59:26.517Z,1026.05
2018-06-19T01:00:26.423Z,1026.07
2018-06-19T01:01:26.597Z,1026.08
2018-06-19T01:02:26.588Z,1026.07
2018-06-19T01:03:26.442Z,1026.09
2018-06-19T01:04:26.547Z,1026.07
2018-06-19T01:05:26.478Z,1026.08
2018-06-19T01:06:26.522Z,1026.09
2018-06-19T01:07:26.580Z,1026.09
2018-06-19T01:08:26.893Z,1026.09
2018-06-19T01:09:44.401Z,1026.05
2018-06-19T01:10:26.542Z,1026.09
2018-06-19T01:11:26.457Z,1026.12
2018-06-19T01:12:26.405Z,1026.06
2018-06-19T01:13:26.713Z,1026.12
2018-06-19T01:14:26.436Z,1026.1
2018-06-19T01:15:26.564Z,1026.13
2018-06-19T01:16:26.435Z,1026.12
2018-06-19T01:17:26.845Z,1026.15
2018-06-19T01:18:26.711Z,1026.14
2018-06-19T01:19:26.389Z,1026.12
2018-06-19T01:20:26.673Z,1026.12
2018-06-19T01:21:36.563Z,1026.08
2018-06-19T01:22:26.592Z,1026.09
2018-06-19T01:23:26.597Z,1026.07
2018-06-19T01:24:26.502Z,1026.08
2018-06-19T01:25:26.644Z,1026.07
2018-06-19T01:26:26.934Z,1026.11
2018-06-19T01:27:26.443Z,1026.14
2018-06-19T01:28:26.428Z,1026.15
2018-06-19T01:29:26.561Z,1026.18
2018-06-19T01:30:26.480Z,1026.15
2018-06-19T01:31:26.666Z,1026.17
2018-06-19T01:32:26.633Z,1026.14
2018-06-19T01:33:26.431Z,1026.12
2018-06-19T01:34:26.516Z,1026.14
2018-06-19T01:35:26.761Z,1026.13
2018-06-19T01:36:26.525Z,1026.18
2018-06-19T01:37:26.559Z,1026.1
2018-06-19T01:38:26.557Z,1026.09
2018-06-19T01:39:26.700Z,1026.12
2018-06-19T01:40:26.491Z,1026.14
2018-06-19T01:41:26.636Z,1026.12
2018-06-19T01:42:26.566Z,1026.17
2018-06-19T01:43:26.843Z,1026.17
2018-06-19T01:44:26.654Z,1026.2
2018-06-19T01:45:26.411Z,1026.22
2018-06-19T01:46:26.456Z,1026.21
2018-06-19T01:47:26.470Z,1026.21
2018-06-19T01:48:26.495Z,1026.21
2018-06-19T01:49:26.648Z,1026.21
2018-06-19T01:50:26.340Z,1026.24
2018-06-19T01:51:26.646Z,1026.23
2018-06-19T01:52:26.541Z,1026.25
2018-06-19T01:53:26.336Z,1026.24
2018-06-19T01:54:26.442Z,1026.22
2018-06-19T01:55:26.370Z,1026.28
2018-06-19T01:56:26.583Z,1026.23
2018-06-19T01:57:26.605Z,1026.22
2018-06-19T01:58:26.585Z,1026.22
2018-06-19T01:59:26.554Z,1026.23
2018-06-19T02:00:26.456Z,1026.23
2018-06-19T02:01:26.780Z,1026.2
2018-06-19T02:02:26.334Z,1026.19
2018-06-19T02:03:26.575Z,1026.2
2018-06-19T02:04:26.432Z,1026.24
2018-06-19T02:05:26.528Z,1026.24
2018-06-19T02:06:26.382Z,1026.24
2018-06-19T02:07:26.601Z,1026.23
2018-06-19T02:08:26.530Z,1026.21
2018-06-19T02:09:26.615Z,1026.21
2018-06-19T02:10:26.505Z,1026.16
2018-06-19T02:11:26.435Z,1026.15
2018-06-19T02:12:26.508Z,1026.16
2018-06-19T02:13:26.448Z,1026.17
2018-06-19T02:14:26.660Z,1026.19
2018-06-19T02:15:26.427Z,1026.19
2018-06-19T02:16:26.519Z,1026.2
2018-06-19T02:17:26.475Z,1026.19
2018-06-19T02:18:26.386Z,1026.17
2018-06-19T02:19:26.418Z,1026.11
2018-06-19T02:20:26.601Z,1026.18
2018-06-19T02:21:26.691Z,1026.19
2018-06-19T02:22:26.585Z,1026.18
2018-06-19T02:23:26.450Z,1026.14
2018-06-19T02:24:26.884Z,1026.14
2018-06-19T02:25:26.593Z,1026.11
2018-06-19T02:26:26.574Z,1026.18
2018-06-19T02:27:26.417Z,1026.18
2018-06-19T02:28:26.598Z,1026.18
2018-06-19T02:29:26.407Z,1026.2
2018-06-19T02:30:26.326Z,1026.17
2018-06-19T02:31:26.468Z,1026.15
2018-06-19T02:32:26.646Z,1026.21
2018-06-19T02:33:26.838Z,1026.18
2018-06-19T02:34:26.409Z,1026.16
2018-06-19T02:35:26.342Z,1026.21
2018-06-19T02:36:26.548Z,1026.22
2018-06-19T02:37:26.499Z,1026.25
2018-06-19T02:38:26.474Z,1026.23
2018-06-19T02:39:26.401Z,1026.2
2018-06-19T02:40:26.496Z,1026.23
2018-06-19T02:41:26.687Z,1026.24
2018-06-19T02:42:26.440Z,1026.24
2018-06-19T02:43:26.624Z,1026.24
2018-06-19T02:44:26.649Z,1026.25
2018-06-19T02:45:26.406Z,1026.25
2018-06-19T02:46:26.471Z,1026.26
2018-06-19T02:47:26.369Z,1026.27
2018-06-19T02:48:26.486Z,1026.3
2018-06-19T02:49:26.511Z,1026.3
2018-06-19T02:50:26.688Z,1026.33
2018-06-19T02:51:26.508Z,1026.3
2018-06-19T02:52:26.510Z,1026.3
2018-06-19T02:53:26.607Z,1026.3
2018-06-19T02:54:26.527Z,1026.33
2018-06-19T02:55:26.427Z,1026.3
2018-06-19T02:56:26.501Z,1026.37
2018-06-19T02:57:26.529Z,1026.37
2018-06-19T02:58:26.634Z,1026.33
2018-06-19T02:59:26.437Z,1026.4
2018-06-19T03:00:26.774Z,1026.36
2018-06-19T03:01:26.484Z,1026.39
2018-06-19T03:02:26.539Z,1026.39
2018-06-19T03:03:26.472Z,1026.34
2018-06-19T03:04:26.647Z,1026.33
2018-06-19T03:05:26.276Z,1026.34
2018-06-19T03:06:26.536Z,1026.34
2018-06-19T03:07:26.644Z,1026.37
2018-06-19T03:08:26.443Z,1026.39
2018-06-19T03:09:26.486Z,1026.38
2018-06-19T03:10:26.441Z,1026.34
2018-06-19T03:11:26.569Z,1026.34
2018-06-19T03:12:26.498Z,1026.32
2018-06-19T03:13:26.444Z,1026.36
2018-06-19T03:14:26.373Z,1026.35
2018-06-19T03:15:26.615Z,1026.37
2018-06-19T03:16:26.620Z,1026.36
2018-06-19T03:17:26.535Z,1026.36
2018-06-19T03:18:26.606Z,1026.36
2018-06-19T03:19:26.341Z,1026.33
2018-06-19T03:20:26.564Z,1026.36
2018-06-19T03:21:26.432Z,1026.32
2018-06-19T03:22:26.487Z,1026.36
2018-06-19T03:23:26.356Z,1026.31
2018-06-19T03:24:26.606Z,1026.36
2018-06-19T03:25:26.393Z,1026.39
2018-06-19T03:26:26.502Z,1026.43
2018-06-19T03:27:26.526Z,1026.4
2018-06-19T03:28:26.482Z,1026.41
2018-06-19T03:29:26.528Z,1026.41
2018-06-19T03:30:26.837Z,1026.44
2018-06-19T03:31:26.500Z,1026.47
2018-06-19T03:32:26.403Z,1026.51
2018-06-19T03:33:26.547Z,1026.48
2018-06-19T03:34:26.416Z,1026.52
2018-06-19T03:35:26.416Z,1026.52
2018-06-19T03:36:26.655Z,1026.53
2018-06-19T03:37:26.696Z,1026.54
2018-06-19T03:38:26.459Z,1026.58
2018-06-19T03:39:26.384Z,1026.54
2018-06-19T03:40:26.472Z,1026.56
2018-06-19T03:41:26.347Z,1026.53
2018-06-19T03:42:26.694Z,1026.53
2018-06-19T03:43:26.512Z,1026.49
2018-06-19T03:44:26.709Z,1026.53
2018-06-19T03:45:26.614Z,1026.53
2018-06-19T03:46:26.491Z,1026.55
2018-06-19T03:47:26.444Z,1026.52
2018-06-19T03:48:26.462Z,1026.57
2018-06-19T03:49:26.450Z,1026.55
2018-06-19T03:50:26.512Z,1026.61
2018-06-19T03:51:26.676Z,1026.58
2018-06-19T03:52:26.558Z,1026.61
2018-06-19T03:53:26.621Z,1026.58
2018-06-19T03:54:26.591Z,1026.52
2018-06-19T03:55:26.432Z,1026.55
2018-06-19T03:56:26.425Z,1026.57
2018-06-19T03:57:26.765Z,1026.56
2018-06-19T03:58:26.857Z,1026.59
2018-06-19T03:59:26.340Z,1026.59
2018-06-19T04:00:26.614Z,1026.64
2018-06-19T04:01:36.655Z,1026.65
2018-06-19T04:02:26.458Z,1026.63
2018-06-19T04:03:26.506Z,1026.64
2018-06-19T04:04:26.317Z,1026.64
2018-06-19T04:05:26.385Z,1026.61
2018-06-19T04:06:26.369Z,1026.62
2018-06-19T04:07:26.554Z,1026.62
2018-06-19T04:08:26.425Z,1026.64
2018-06-19T04:09:26.596Z,1026.66
2018-06-19T04:10:26.431Z,1026.67
2018-06-19T04:11:26.535Z,1026.69
2018-06-19T04:12:26.572Z,1026.7
2018-06-19T04:13:26.327Z,1026.74
2018-06-19T04:14:26.329Z,1026.73
2018-06-19T04:15:26.589Z,1026.72
2018-06-19T04:16:26.376Z,1026.71
2018-06-19T04:17:26.383Z,1026.68
2018-06-19T04:18:26.583Z,1026.7
2018-06-19T04:19:26.600Z,1026.67
2018-06-19T04:20:26.476Z,1026.67
2018-06-19T04:21:26.363Z,1026.68
2018-06-19T04:22:26.478Z,1026.67
2018-06-19T04:23:26.403Z,1026.64
2018-06-19T04:24:26.570Z,1026.66
2018-06-19T04:25:26.533Z,1026.65
2018-06-19T04:26:26.488Z,1026.68
2018-06-19T04:27:26.545Z,1026.7
2018-06-19T04:28:26.357Z,1026.68
2018-06-19T04:29:26.364Z,1026.68
2018-06-19T04:30:26.358Z,1026.68
2018-06-19T04:31:26.336Z,1026.69
2018-06-19T04:32:26.489Z,1026.66
2018-06-19T04:33:26.667Z,1026.68
2018-06-19T04:34:26.373Z,1026.69
2018-06-19T04:35:26.576Z,1026.7
2018-06-19T04:36:26.573Z,1026.73
2018-06-19T04:37:26.441Z,1026.72
2018-06-19T04:38:26.490Z,1026.75
2018-06-19T04:39:26.574Z,1026.71
2018-06-19T04:40:26.557Z,1026.7
2018-06-19T04:41:26.597Z,1026.7
2018-06-19T04:42:26.389Z,1026.75
2018-06-19T04:43:26.583Z,1026.72
2018-06-19T04:44:26.475Z,1026.75
2018-06-19T04:45:26.489Z,1026.77
2018-06-19T04:46:26.473Z,1026.78
2018-06-19T04:47:26.459Z,1026.8
2018-06-19T04:48:26.460Z,1026.81
2018-06-19T04:49:26.702Z,1026.85
2018-06-19T04:50:26.397Z,1026.8
2018-06-19T04:51:26.318Z,1026.8
2018-06-19T04:52:26.402Z,1026.83
2018-06-19T04:53:26.390Z,1026.85
2018-06-19T04:54:26.346Z,1026.84
2018-06-19T04:55:26.380Z,1026.83
2018-06-19T04:56:26.563Z,1026.84
2018-06-19T04:57:26.676Z,1026.86
2018-06-19T04:58:26.548Z,1026.82
2018-06-19T04:59:26.482Z,1026.87
2018-06-19T05:00:26.304Z,1026.81
2018-06-19T05:01:26.316Z,1026.84
2018-06-19T05:02:26.436Z,1026.79
2018-06-19T05:03:26.905Z,1026.82
2018-06-19T05:04:26.305Z,1026.82
2018-06-19T05:05:26.523Z,1026.8
2018-06-19T05:06:26.557Z,1026.81
2018-06-19T05:07:26.466Z,1026.78
2018-06-19T05:08:26.381Z,1026.8
2018-06-19T05:09:26.376Z,1026.82
2018-06-19T05:10:26.429Z,1026.83
2018-06-19T05:11:26.676Z,1026.84
2018-06-19T05:12:26.423Z,1026.81
2018-06-19T05:13:26.437Z,1026.89
2018-06-19T05:14:26.500Z,1026.89
2018-06-19T05:15:26.420Z,1026.9
2018-06-19T05:16:26.495Z,1026.89
2018-06-19T05:17:26.470Z,1026.89
2018-06-19T05:18:26.349Z,1026.88
2018-06-19T05:19:26.480Z,1026.87
2018-06-19T05:20:26.381Z,1026.85
2018-06-19T05:21:26.432Z,1026.89
2018-06-19T05:22:26.447Z,1026.85
2018-06-19T05:23:26.299Z,1026.88
2018-06-19T05:24:26.347Z,1026.92
2018-06-19T05:25:26.568Z,1026.95
2018-06-19T05:26:26.522Z,1026.93
2018-06-19T05:27:26.304Z,1026.99
2018-06-19T05:28:26.519Z,1026.99
2018-06-19T05:29:26.536Z,1027.04
2018-06-19T05:30:26.600Z,1027.01
2018-06-19T05:31:26.323Z,1027.01
2018-06-19T05:32:26.687Z,1026.99
2018-06-19T05:33:26.402Z,1027.03
2018-06-19T05:34:26.554Z,1027.01
2018-06-19T05:35:26.552Z,1027.03
2018-06-19T05:36:26.445Z,1027.01
2018-06-19T05:37:26.318Z,1026.97
2018-06-19T05:38:26.384Z,1027.01
2018-06-19T05:39:26.467Z,1026.98
2018-06-19T05:40:26.484Z,1027.05
2018-06-19T05:41:26.540Z,1027.13
2018-06-19T05:42:26.376Z,1027.15
2018-06-19T05:43:26.380Z,1027.17
2018-06-19T05:44:26.436Z,1027.13
2018-06-19T05:45:26.314Z,1027.2
2018-06-19T05:46:26.451Z,1027.2
2018-06-19T05:47:26.373Z,1027.19
2018-06-19T05:48:26.413Z,1027.2
2018-06-19T05:49:26.431Z,1027.19
2018-06-19T05:50:26.416Z,1027.21
2018-06-19T05:51:26.596Z,1027.22
2018-06-19T05:52:26.481Z,1027.18
2018-06-19T05:53:26.352Z,1027.19
2018-06-19T05:54:26.379Z,1027.22
2018-06-19T05:55:26.475Z,1027.16
2018-06-19T05:56:26.482Z,1027.17
2018-06-19T05:57:26.713Z,1027.21
2018-06-19T05:58:26.276Z,1027.23
2018-06-19T05:59:26.478Z,1027.21
2018-06-19T06:00:27.582Z,1027.27
2018-06-19T06:01:26.441Z,1027.23
2018-06-19T06:02:26.491Z,1027.26
2018-06-19T06:03:26.402Z,1027.31
2018-06-19T06:04:26.549Z,1027.36
2018-06-19T06:05:26.480Z,1027.35
2018-06-19T06:06:26.571Z,1027.33
2018-06-19T06:07:26.463Z,1027.4
2018-06-19T06:08:26.692Z,1027.31
2018-06-19T06:09:26.423Z,1027.32
2018-06-19T06:10:26.626Z,1027.37
2018-06-19T06:11:26.500Z,1027.28
2018-06-19T06:12:26.348Z,1027.25
2018-06-19T06:13:26.676Z,1027.23
2018-06-19T06:14:26.486Z,1027.18
2018-06-19T06:15:26.471Z,1027.25
2018-06-19T06:16:26.814Z,1027.19
2018-06-19T06:17:26.633Z,1027.23
2018-06-19T06:18:26.670Z,1027.26
2018-06-19T06:19:26.547Z,1027.24
2018-06-19T06:20:26.416Z,1027.28
2018-06-19T06:21:26.561Z,1027.28
2018-06-19T06:22:26.591Z,1027.28
2018-06-19T06:23:26.575Z,1027.26
2018-06-19T06:24:26.534Z,1027.29
2018-06-19T06:25:26.554Z,1027.33
2018-06-19T06:26:26.372Z,1027.3
2018-06-19T06:27:26.598Z,1027.33
2018-06-19T06:28:26.453Z,1027.29
2018-06-19T06:29:26.284Z,1027.3
2018-06-19T06:30:26.412Z,1027.28
2018-06-19T06:31:27.000Z,1027.29
2018-06-19T06:32:26.311Z,1027.29
2018-06-19T06:33:26.493Z,1027.32
2018-06-19T06:34:26.436Z,1027.36
2018-06-19T06:35:26.492Z,1027.32
2018-06-19T06:36:26.476Z,1027.34
2018-06-19T06:37:26.627Z,1027.35
2018-06-19T06:38:26.365Z,1027.35
2018-06-19T06:39:26.444Z,1027.36
2018-06-19T06:40:26.517Z,1027.33
2018-06-19T06:41:26.656Z,1027.37
2018-06-19T06:42:26.727Z,1027.39
2018-06-19T06:43:26.544Z,1027.4
2018-06-19T06:44:26.377Z,1027.41
2018-06-19T06:45:26.691Z,1027.44
2018-06-19T06:46:26.636Z,1027.44
2018-06-19T06:47:26.324Z,1027.42
2018-06-19T06:48:26.404Z,1027.39
2018-06-19T06:49:26.525Z,1027.41
2018-06-19T06:50:26.999Z,1027.37
2018-06-19T06:51:26.577Z,1027.35
2018-06-19T06:52:26.432Z,1027.4
2018-06-19T06:53:26.547Z,1027.4
2018-06-19T06:54:26.400Z,1027.4
2018-06-19T06:55:26.492Z,1027.41
2018-06-19T06:56:26.466Z,1027.44
2018-06-19T06:57:26.286Z,1027.44
2018-06-19T06:58:26.450Z,1027.43
2018-06-19T06:59:26.515Z,1027.4
2018-06-19T07:00:26.503Z,1027.45
2018-06-19T07:01:26.500Z,1027.43
2018-06-19T07:02:26.285Z,1027.44
2018-06-19T07:03:26.544Z,1027.43
2018-06-19T07:04:26.372Z,1027.35
2018-06-19T07:05:26.358Z,1027.36
2018-06-19T07:06:26.297Z,1027.34
2018-06-19T07:07:26.606Z,1027.36
2018-06-19T07:08:26.503Z,1027.28
2018-06-19T07:09:26.430Z,1027.32
2018-06-19T07:10:26.386Z,1027.3
2018-06-19T07:11:26.411Z,1027.28
2018-06-19T07:12:26.544Z,1027.25
2018-06-19T07:13:26.673Z,1027.28
2018-06-19T07:14:26.495Z,1027.28
2018-06-19T07:15:26.345Z,1027.3
2018-06-19T07:16:26.652Z,1027.3
2018-06-19T07:17:26.299Z,1027.31
2018-06-19T07:18:26.377Z,1027.31
2018-06-19T07:19:26.635Z,1027.27
2018-06-19T07:20:26.643Z,1027.35
2018-06-19T07:21:26.425Z,1027.36
2018-06-19T07:22:26.611Z,1027.33
2018-06-19T07:23:26.505Z,1027.34
2018-06-19T07:24:26.497Z,1027.31
2018-06-19T07:25:26.373Z,1027.26
2018-06-19T07:26:26.407Z,1027.3
2018-06-19T07:27:26.453Z,1027.26
2018-06-19T07:28:26.410Z,1027.31
2018-06-19T07:29:26.381Z,1027.28
2018-06-19T07:30:26.502Z,1027.32
2018-06-19T07:31:26.257Z,1027.3
2018-06-19T07:32:26.408Z,1027.31
2018-06-19T07:33:26.458Z,1027.3
2018-06-19T07:34:26.524Z,1027.26
2018-06-19T07:35:26.288Z,1027.23
2018-06-19T07:36:26.399Z,1027.23
2018-06-19T07:37:26.522Z,1027.28
2018-06-19T07:38:26.882Z,1027.28
2018-06-19T07:39:26.690Z,1027.19
2018-06-19T07:40:26.520Z,1027.17
2018-06-19T07:41:26.570Z,1027.19
2018-06-19T07:42:26.473Z,1027.17
2018-06-19T07:43:26.626Z,1027.2
2018-06-19T07:44:26.358Z,1027.17
2018-06-19T07:45:26.316Z,1027.19
2018-06-19T07:46:26.579Z,1027.22
2018-06-19T07:47:26.373Z,1027.2
2018-06-19T07:48:26.568Z,1027.15
2018-06-19T07:49:26.593Z,1027.16
2018-06-19T07:50:26.469Z,1027.2
2018-06-19T07:51:26.552Z,1027.18
2018-06-19T07:52:26.705Z,1027.19
2018-06-19T07:53:26.725Z,1027.15
2018-06-19T07:54:26.880Z,1027.19
2018-06-19T07:55:26.868Z,1027.2
2018-06-19T07:56:26.723Z,1027.2
2018-06-19T07:57:26.516Z,1027.21
2018-06-19T07:58:26.455Z,1027.22
2018-06-19T07:59:26.402Z,1027.19
2018-06-19T08:00:26.308Z,1027.21
2018-06-19T08:01:26.426Z,1027.23
2018-06-19T08:02:26.319Z,1027.23
2018-06-19T08:03:26.435Z,1027.21
2018-06-19T08:04:26.515Z,1027.2
2018-06-19T08:05:26.345Z,1027.22
2018-06-19T08:06:26.594Z,1027.19
2018-06-19T08:07:26.483Z,1027.19
2018-06-19T08:08:26.378Z,1027.16
2018-06-19T08:09:26.601Z,1027.21
2018-06-19T08:10:26.523Z,1027.21
2018-06-19T08:11:26.257Z,1027.21
2018-06-19T08:12:26.440Z,1027.25
2018-06-19T08:13:26.672Z,1027.24
2018-06-19T08:14:26.378Z,1027.19
2018-06-19T08:15:26.498Z,1027.2
2018-06-19T08:16:26.502Z,1027.2
2018-06-19T08:17:26.533Z,1027.19
2018-06-19T08:18:26.457Z,1027.17
2018-06-19T08:19:26.388Z,1027.2
2018-06-19T08:20:26.332Z,1027.21
2018-06-19T08:21:26.408Z,1027.21
2018-06-19T08:22:26.397Z,1027.18
2018-06-19T08:23:26.493Z,1027.16
2018-06-19T08:24:26.527Z,1027.2
2018-06-19T08:25:26.637Z,1027.17
2018-06-19T08:26:26.494Z,1027.16
2018-06-19T08:27:26.475Z,1027.23
2018-06-19T08:28:26.348Z,1027.28
2018-06-19T08:29:26.251Z,1027.26
2018-06-19T08:30:26.414Z,1027.29
2018-06-19T08:31:26.578Z,1027.27
2018-06-19T08:32:26.356Z,1027.22
2018-06-19T08:33:26.466Z,1027.25
2018-06-19T08:34:26.353Z,1027.27
2018-06-19T08:35:26.249Z,1027.23
2018-06-19T08:36:26.764Z,1027.2
2018-06-19T08:37:26.261Z,1027.3
2018-06-19T08:38:26.171Z,1027.23
2018-06-19T08:39:26.452Z,1027.22
2018-06-19T08:40:26.234Z,1027.26
2018-06-19T08:41:26.474Z,1027.2
2018-06-19T08:42:26.453Z,1027.28
2018-06-19T08:43:26.327Z,1027.22
2018-06-19T08:44:26.433Z,1027.2
2018-06-19T08:45:26.367Z,1027.19
2018-06-19T08:46:26.562Z,1027.14
2018-06-19T08:47:26.278Z,1027.15
2018-06-19T08:48:26.523Z,1027.12
2018-06-19T08:49:26.480Z,1027.13
2018-06-19T08:50:26.353Z,1027.17
2018-06-19T08:51:26.324Z,1027.12
2018-06-19T08:52:26.292Z,1027.14
2018-06-19T08:53:26.339Z,1027.15
2018-06-19T08:54:26.520Z,1027.15
2018-06-19T08:55:26.568Z,1027.13
2018-06-19T08:56:26.894Z,1027.14
2018-06-19T08:57:26.539Z,1027.15
2018-06-19T08:58:26.588Z,1027.19
2018-06-19T08:59:26.754Z,1027.17
2018-06-19T09:00:26.323Z,1027.18
2018-06-19T09:01:26.460Z,1027.17
2018-06-19T09:02:26.383Z,1027.17
2018-06-19T09:03:26.375Z,1027.15
2018-06-19T09:04:26.688Z,1027.14
2018-06-19T09:05:26.308Z,1027.11
2018-06-19T09:06:26.335Z,1027.12
2018-06-19T09:07:26.444Z,1027.09
2018-06-19T09:08:26.239Z,1027.16
2018-06-19T09:09:26.457Z,1027.09
2018-06-19T09:10:26.346Z,1027.1
2018-06-19T09:11:26.423Z,1027.13
2018-06-19T09:12:26.591Z,1027.13
2018-06-19T09:13:26.513Z,1027.13
2018-06-19T09:14:26.285Z,1027.14
2018-06-19T09:15:26.434Z,1027.11
2018-06-19T09:16:26.204Z,1027.1
2018-06-19T09:17:26.410Z,1027.12
2018-06-19T09:18:26.472Z,1027.1
2018-06-19T09:19:26.390Z,1027.14
2018-06-19T09:20:26.681Z,1027.11
2018-06-19T09:21:26.339Z,1027.12
2018-06-19T09:22:26.496Z,1027.13
2018-06-19T09:23:26.214Z,1027.14
2018-06-19T09:24:26.328Z,1027.09
2018-06-19T09:25:26.483Z,1027.11
2018-06-19T09:26:26.423Z,1027.11
2018-06-19T09:27:26.354Z,1027.15
2018-06-19T09:28:26.376Z,1027.18
2018-06-19T09:29:26.391Z,1027.08
2018-06-19T09:30:26.280Z,1027.08
2018-06-19T09:31:26.601Z,1027.06
2018-06-19T09:32:26.384Z,1027
2018-06-19T09:33:26.326Z,1027.05
2018-06-19T09:34:26.268Z,1026.99
2018-06-19T09:35:26.528Z,1027.03
2018-06-19T09:36:26.437Z,1027.04
2018-06-19T09:37:26.362Z,1027.02
2018-06-19T09:38:26.427Z,1027.04
2018-06-19T09:39:26.419Z,1027.04
2018-06-19T09:40:26.548Z,1027.02
2018-06-19T09:41:26.453Z,1027.02
2018-06-19T09:42:26.396Z,1026.98
2018-06-19T09:43:26.565Z,1026.96
2018-06-19T09:44:26.414Z,1026.99
2018-06-19T09:45:26.456Z,1026.96
2018-06-19T09:46:26.513Z,1026.95
2018-06-19T09:47:26.550Z,1026.95
2018-06-19T09:48:26.467Z,1026.92
2018-06-19T09:49:26.315Z,1026.99
2018-06-19T09:50:26.436Z,1026.92
2018-06-19T09:51:26.409Z,1026.99
2018-06-19T09:52:26.902Z,1026.98
2018-06-19T09:53:26.452Z,1027
2018-06-19T09:54:26.585Z,1026.96
2018-06-19T09:55:26.229Z,1026.98
2018-06-19T09:56:26.299Z,1026.96
2018-06-19T09:57:26.535Z,1026.94
2018-06-19T09:58:26.497Z,1026.97
2018-06-19T09:59:36.735Z,1026.91
2018-06-19T10:00:26.422Z,1026.92
2018-06-19T10:01:26.448Z,1026.89
2018-06-19T10:02:26.465Z,1026.87
2018-06-19T10:03:26.542Z,1026.87
2018-06-19T10:04:26.389Z,1026.89
2018-06-19T10:05:26.449Z,1026.91
2018-06-19T10:06:26.605Z,1026.89
2018-06-19T10:07:26.581Z,1026.88
2018-06-19T10:08:26.418Z,1026.87
2018-06-19T10:09:26.302Z,1026.91
2018-06-19T10:10:26.551Z,1026.87
2018-06-19T10:11:26.340Z,1026.91
2018-06-19T10:12:26.435Z,1026.88
2018-06-19T10:13:26.379Z,1026.9
2018-06-19T10:14:26.360Z,1026.89
2018-06-19T10:15:26.398Z,1026.91
2018-06-19T10:16:26.270Z,1026.9
2018-06-19T10:17:26.327Z,1026.91
2018-06-19T10:18:26.376Z,1026.87
2018-06-19T10:19:26.655Z,1026.81
2018-06-19T10:20:26.386Z,1026.84
2018-06-19T10:21:26.468Z,1026.86
2018-06-19T10:22:26.473Z,1026.87
2018-06-19T10:23:26.428Z,1026.9
2018-06-19T10:24:26.376Z,1026.88
2018-06-19T10:25:26.449Z,1026.9
2018-06-19T10:26:26.473Z,1026.96
2018-06-19T10:27:26.284Z,1026.94
2018-06-19T10:28:26.538Z,1026.96
2018-06-19T10:29:26.357Z,1026.95
2018-06-19T10:30:26.512Z,1026.95
2018-06-19T10:31:26.241Z,1026.92
2018-06-19T10:32:26.310Z,1026.85
2018-06-19T10:33:26.425Z,1026.88
2018-06-19T10:34:26.499Z,1026.88
2018-06-19T10:35:26.395Z,1026.87
2018-06-19T10:36:26.302Z,1026.92
2018-06-19T10:37:26.452Z,1026.91
2018-06-19T10:38:26.313Z,1026.91
2018-06-19T10:39:26.418Z,1026.92
2018-06-19T10:40:26.363Z,1026.86
2018-06-19T10:41:26.372Z,1026.85
2018-06-19T10:42:26.497Z,1026.9
2018-06-19T10:43:26.269Z,1026.89
2018-06-19T10:44:26.474Z,1026.91
2018-06-19T10:45:26.400Z,1026.86
2018-06-19T10:46:26.401Z,1026.88
2018-06-19T10:47:26.463Z,1026.85
2018-06-19T10:48:26.397Z,1026.88
2018-06-19T10:49:26.238Z,1026.93
2018-06-19T10:50:26.324Z,1026.91
2018-06-19T10:51:26.474Z,1026.91
2018-06-19T10:52:26.638Z,1026.94
2018-06-19T10:53:26.463Z,1026.93
2018-06-19T10:54:26.473Z,1026.98
2018-06-19T10:55:26.341Z,1026.92
2018-06-19T10:56:26.499Z,1026.91
2018-06-19T10:57:26.380Z,1026.9
2018-06-19T10:58:26.288Z,1026.85
2018-06-19T10:59:26.322Z,1026.86
2018-06-19T11:00:26.465Z,1026.85
2018-06-19T11:01:26.211Z,1026.83
2018-06-19T11:02:26.379Z,1026.81
2018-06-19T11:03:26.305Z,1026.81
2018-06-19T11:04:26.273Z,1026.8
2018-06-19T11:05:26.344Z,1026.75
2018-06-19T11:06:26.402Z,1026.76
2018-06-19T11:07:26.209Z,1026.82
2018-06-19T11:08:26.224Z,1026.75
2018-06-19T11:09:26.267Z,1026.73
2018-06-19T11:10:26.462Z,1026.83
2018-06-19T11:11:26.486Z,1026.78
2018-06-19T11:12:26.477Z,1026.83
2018-06-19T11:13:26.383Z,1026.77
2018-06-19T11:14:26.497Z,1026.74
2018-06-19T11:15:26.316Z,1026.69
2018-06-19T11:16:26.227Z,1026.82
2018-06-19T11:17:26.291Z,1026.82
2018-06-19T11:18:26.875Z,1026.8
2018-06-19T11:19:26.294Z,1026.8
2018-06-19T11:20:26.327Z,1026.81
2018-06-19T11:21:26.645Z,1026.81
2018-06-19T11:22:26.249Z,1026.8
2018-06-19T11:23:26.431Z,1026.82
2018-06-19T11:24:26.311Z,1026.85
2018-06-19T11:25:26.384Z,1026.8
2018-06-19T11:26:26.449Z,1026.72
2018-06-19T11:27:26.319Z,1026.74
2018-06-19T11:28:26.407Z,1026.76
2018-06-19T11:29:26.375Z,1026.73
2018-06-19T11:30:26.443Z,1026.82
2018-06-19T11:31:26.363Z,1026.79
2018-06-19T11:32:26.477Z,1026.77
2018-06-19T11:33:26.352Z,1026.74
2018-06-19T11:34:26.380Z,1026.78
2018-06-19T11:35:26.455Z,1026.77
2018-06-19T11:36:26.472Z,1026.74
2018-06-19T11:37:26.430Z,1026.74
2018-06-19T11:38:26.588Z,1026.72
2018-06-19T11:39:26.281Z,1026.73
2018-06-19T11:40:26.506Z,1026.72
2018-06-19T11:41:26.463Z,1026.72
2018-06-19T11:42:26.295Z,1026.72
2018-06-19T11:43:26.560Z,1026.72
2018-06-19T11:44:26.246Z,1026.71
2018-06-19T11:45:26.354Z,1026.69
2018-06-19T11:46:26.433Z,1026.69
2018-06-19T11:47:26.395Z,1026.72
2018-06-19T11:48:26.294Z,1026.7
2018-06-19T11:49:26.457Z,1026.66
2018-06-19T11:50:26.541Z,1026.66
2018-06-19T11:51:26.467Z,1026.72
2018-06-19T11:52:26.355Z,1026.66
2018-06-19T11:53:26.384Z,1026.69
2018-06-19T11:54:26.223Z,1026.7
2018-06-19T11:55:26.304Z,1026.65
2018-06-19T11:56:26.235Z,1026.67
2018-06-19T11:57:26.468Z,1026.67
2018-06-19T11:58:26.412Z,1026.67
2018-06-19T11:59:26.251Z,1026.64
2018-06-19T12:00:26.288Z,1026.62
2018-06-19T12:01:26.328Z,1026.61
2018-06-19T12:02:26.402Z,1026.57
2018-06-19T12:03:26.197Z,1026.59
2018-06-19T12:04:26.270Z,1026.62
2018-06-19T12:05:26.306Z,1026.61
2018-06-19T12:06:26.234Z,1026.64
2018-06-19T12:07:26.487Z,1026.64
2018-06-19T12:08:26.502Z,1026.58